createdAt,value
2022-09-07T00:00:50.774Z,4.0
2022-09-07T00:01:51.373Z,4.2
2022-09-07T00:02:52.027Z,3.8
2022-09-07T00:03:52.597Z,4.0
2022-09-07T00:04:53.176Z,3.5
2022-09-07T00:05:53.774Z,3.7
2022-09-07T00:06:54.369Z,3.8
2022-09-07T00:07:54.973Z,3.6
2022-09-07T00:08:55.561Z,4.0
2022-09-07T00:09:56.159Z,3.8
2022-09-07T00:10:56.754Z,3.9
2022-09-07T00:11:57.351Z,3.6
2022-09-07T00:12:57.944Z,3.5
2022-09-07T00:13:58.560Z,3.5
2022-09-07T00:14:59.158Z,4.4
2022-09-07T00:15:59.788Z,3.4
2022-09-07T00:17:00.353Z,3.3
2022-09-07T00:18:00.963Z,3.5
2022-09-07T00:19:01.563Z,3.3
2022-09-07T00:20:02.158Z,3.3
2022-09-07T00:21:02.754Z,3.2
2022-09-07T00:22:03.350Z,3.6
2022-09-07T00:23:03.943Z,3.3
2022-09-07T00:24:04.541Z,3.4
2022-09-07T00:25:05.140Z,3.4
2022-09-07T00:26:05.734Z,3.5
2022-09-07T00:27:06.329Z,3.1
2022-09-07T00:28:06.924Z,4.1
2022-09-07T00:29:07.523Z,3.8
2022-09-07T00:30:08.119Z,3.5
2022-09-07T00:31:08.752Z,3.9
2022-09-07T00:32:09.312Z,3.3
2022-09-07T00:33:09.926Z,3.5
2022-09-07T00:34:10.527Z,3.4
2022-09-07T00:35:11.119Z,3.5
2022-09-07T00:36:11.716Z,3.5
2022-09-07T00:37:12.310Z,3.5
2022-09-07T00:38:12.907Z,3.4
2022-09-07T00:39:13.500Z,3.5
2022-09-07T00:40:14.098Z,3.0
2022-09-07T00:41:14.690Z,3.3
2022-09-07T00:42:15.286Z,3.2
2022-09-07T00:43:15.886Z,3.0
2022-09-07T00:44:16.478Z,3.3
2022-09-07T00:45:17.075Z,2.8
2022-09-07T00:46:17.746Z,3.5
2022-09-07T00:47:18.301Z,3.3
2022-09-07T00:48:18.899Z,2.9
2022-09-07T00:49:19.491Z,2.9
2022-09-07T00:50:20.087Z,2.9
2022-09-07T00:51:20.685Z,3.0
2022-09-07T00:52:21.280Z,2.9
2022-09-07T00:53:21.894Z,2.9
2022-09-07T00:54:22.492Z,3.1
2022-09-07T00:55:23.088Z,3.1
2022-09-07T00:56:23.684Z,3.0
2022-09-07T00:57:24.301Z,3.0
2022-09-07T00:58:24.951Z,2.9
2022-09-07T00:59:25.548Z,3.2
2022-09-07T01:00:26.146Z,3.4
2022-09-07T01:01:26.833Z,2.8
2022-09-07T01:02:27.574Z,3.1
2022-09-07T01:03:28.074Z,3.1
2022-09-07T01:04:28.669Z,3.3
2022-09-07T01:05:29.278Z,3.0
2022-09-07T01:06:29.861Z,2.9
2022-09-07T01:07:30.455Z,2.8
2022-09-07T01:08:31.221Z,3.2
2022-09-07T01:09:31.878Z,3.0
2022-09-07T01:10:32.474Z,2.7
2022-09-07T01:11:33.070Z,2.8
2022-09-07T01:12:33.665Z,2.8
2022-09-07T01:13:34.260Z,3.1
2022-09-07T01:14:34.857Z,3.2
2022-09-07T01:15:35.472Z,2.9
2022-09-07T01:16:36.046Z,3.3
2022-09-07T01:17:36.639Z,2.9
2022-09-07T01:18:37.234Z,3.2
2022-09-07T01:19:37.829Z,3.0
2022-09-07T01:20:38.425Z,2.9
2022-09-07T01:21:39.019Z,2.7
2022-09-07T01:22:39.617Z,2.6
2022-09-07T01:23:40.212Z,2.9
2022-09-07T01:24:40.809Z,2.6
2022-09-07T01:25:41.424Z,2.8
2022-09-07T01:26:42.021Z,3.0
2022-09-07T01:27:42.614Z,3.0
2022-09-07T01:28:43.219Z,2.8
2022-09-07T01:29:43.828Z,2.6
2022-09-07T01:30:44.475Z,3.0
2022-09-07T01:31:45.018Z,2.8
2022-09-07T01:32:45.620Z,2.9
2022-09-07T01:33:46.231Z,2.7
2022-09-07T01:34:46.827Z,3.3
2022-09-07T01:35:47.420Z,3.3
2022-09-07T01:36:48.040Z,3.4
2022-09-07T01:37:48.648Z,3.2
2022-09-07T01:38:49.245Z,2.8
2022-09-07T01:39:49.916Z,3.2
2022-09-07T01:40:50.472Z,2.7
2022-09-07T01:41:51.086Z,3.3
2022-09-07T01:42:51.683Z,2.9
2022-09-07T01:43:52.280Z,2.8
2022-09-07T01:44:52.873Z,3.0
2022-09-07T01:45:53.489Z,2.8
2022-09-07T01:46:54.094Z,3.6
2022-09-07T01:47:54.692Z,2.8
2022-09-07T01:48:55.307Z,3.0
2022-09-07T01:49:55.902Z,3.4
2022-09-07T01:50:56.500Z,2.8
2022-09-07T01:51:57.092Z,2.9
2022-09-07T01:52:57.687Z,3.1
2022-09-07T01:53:58.284Z,2.8
2022-09-07T01:54:58.879Z,3.0
2022-09-07T01:55:59.472Z,3.1
2022-09-07T01:57:00.071Z,2.9
2022-09-07T01:58:00.665Z,3.1
2022-09-07T01:59:01.260Z,2.9
2022-09-07T02:00:01.854Z,3.3
2022-09-07T02:01:02.470Z,3.2
2022-09-07T02:02:03.116Z,3.2
2022-09-07T02:03:03.744Z,2.9
2022-09-07T02:04:04.314Z,3.0
2022-09-07T02:05:04.911Z,3.0
2022-09-07T02:06:05.509Z,3.3
2022-09-07T02:07:06.101Z,2.9
2022-09-07T02:08:06.699Z,3.0
2022-09-07T02:09:07.294Z,3.3
2022-09-07T02:10:07.889Z,3.1
2022-09-07T02:11:08.485Z,3.3
2022-09-07T02:12:09.099Z,3.3
2022-09-07T02:13:09.693Z,3.8
2022-09-07T02:14:10.289Z,3.4
2022-09-07T02:15:10.886Z,3.5
2022-09-07T02:16:11.651Z,3.6
2022-09-07T02:17:12.091Z,3.7
2022-09-07T02:18:12.686Z,4.0
2022-09-07T02:19:13.282Z,4.1
2022-09-07T02:20:13.875Z,3.9
2022-09-07T02:21:14.474Z,4.1
2022-09-07T02:22:15.068Z,4.2
2022-09-07T02:23:15.673Z,4.1
2022-09-07T02:24:16.258Z,3.9
2022-09-07T02:25:16.856Z,3.9
2022-09-07T02:26:17.453Z,3.8
2022-09-07T02:27:18.047Z,4.1
2022-09-07T02:28:18.642Z,3.5
2022-09-07T02:29:19.240Z,3.7
2022-09-07T02:30:19.834Z,3.4
2022-09-07T02:31:20.477Z,4.1
2022-09-07T02:32:21.023Z,3.6
2022-09-07T02:33:21.619Z,3.5
2022-09-07T02:34:22.213Z,3.7
2022-09-07T02:35:22.807Z,3.7
2022-09-07T02:36:23.405Z,3.2
2022-09-07T02:37:23.999Z,3.1
2022-09-07T02:38:24.643Z,2.8
2022-09-07T02:39:25.263Z,2.9
2022-09-07T02:40:25.812Z,2.9
2022-09-07T02:41:26.407Z,3.4
2022-09-07T02:42:27.001Z,2.9
2022-09-07T02:43:27.598Z,3.0
2022-09-07T02:44:28.194Z,3.1
2022-09-07T02:45:28.791Z,3.2
2022-09-07T02:46:29.446Z,3.2
2022-09-07T02:47:30.057Z,3.0
2022-09-07T02:48:30.784Z,3.0
2022-09-07T02:49:31.444Z,2.9
2022-09-07T02:50:32.035Z,2.6
2022-09-07T02:51:32.631Z,2.5
2022-09-07T02:52:33.227Z,2.7
2022-09-07T02:53:33.822Z,2.6
2022-09-07T02:54:34.415Z,2.5
2022-09-07T02:55:35.013Z,2.4
2022-09-07T02:56:35.608Z,2.6
2022-09-07T02:57:36.202Z,2.6
2022-09-07T02:58:36.797Z,2.8
2022-09-07T02:59:37.391Z,2.8
2022-09-07T03:00:37.989Z,2.3
2022-09-07T03:01:38.626Z,3.1
2022-09-07T03:02:39.203Z,2.8
2022-09-07T03:03:39.786Z,3.0
2022-09-07T03:04:40.380Z,3.0
2022-09-07T03:05:40.976Z,3.1
2022-09-07T03:06:41.573Z,3.3
2022-09-07T03:07:44.211Z,3.3
2022-09-07T03:08:43.756Z,3.8
2022-09-07T03:09:44.352Z,3.8
2022-09-07T03:10:44.949Z,3.4
2022-09-07T03:11:45.542Z,3.5
2022-09-07T03:12:46.157Z,3.8
2022-09-07T03:13:46.754Z,3.9
2022-09-07T03:14:47.350Z,3.5
2022-09-07T03:15:50.393Z,3.5
2022-09-07T03:16:49.533Z,3.6
2022-09-07T03:17:50.129Z,3.5
2022-09-07T03:18:50.725Z,3.8
2022-09-07T03:19:51.340Z,3.7
2022-09-07T03:20:51.937Z,3.7
2022-09-07T03:21:52.533Z,3.6
2022-09-07T03:22:53.129Z,3.5
2022-09-07T03:23:53.747Z,3.4
2022-09-07T03:24:54.341Z,3.3
2022-09-07T03:25:54.954Z,3.9
2022-09-07T03:26:55.558Z,3.8
2022-09-07T03:27:56.146Z,4.0
2022-09-07T03:28:56.741Z,3.8
2022-09-07T03:29:57.339Z,3.6
2022-09-07T03:30:57.997Z,3.4
2022-09-07T03:31:58.547Z,3.9
2022-09-07T03:32:59.143Z,3.9
2022-09-07T03:33:59.739Z,3.5
2022-09-07T03:35:00.336Z,3.3
2022-09-07T03:36:00.929Z,3.7
2022-09-07T03:37:01.530Z,3.8
2022-09-07T03:38:02.121Z,3.9
2022-09-07T03:39:02.718Z,3.9
2022-09-07T03:40:03.392Z,3.8
2022-09-07T03:41:03.994Z,3.6
2022-09-07T03:42:04.589Z,4.2
2022-09-07T03:43:05.185Z,3.5
2022-09-07T03:44:05.807Z,3.6
2022-09-07T03:45:06.442Z,3.1
2022-09-07T03:46:07.073Z,3.5
2022-09-07T03:47:07.621Z,3.5
2022-09-07T03:48:08.215Z,3.4
2022-09-07T03:49:08.812Z,3.4
2022-09-07T03:50:09.411Z,3.6
2022-09-07T03:51:10.005Z,2.9
2022-09-07T03:52:10.598Z,3.8
2022-09-07T03:53:11.195Z,3.4
2022-09-07T03:54:11.789Z,3.1
2022-09-07T03:55:12.384Z,3.6
2022-09-07T03:56:12.978Z,3.7
2022-09-07T03:57:13.574Z,3.5
2022-09-07T03:58:14.167Z,3.7
2022-09-07T03:59:14.764Z,3.3
2022-09-07T04:00:15.356Z,4.1
2022-09-07T04:01:16.031Z,3.6
2022-09-07T04:02:16.706Z,3.7
2022-09-07T04:03:17.284Z,3.4
2022-09-07T04:04:17.874Z,3.4
2022-09-07T04:05:18.471Z,3.6
2022-09-07T04:06:19.071Z,3.4
2022-09-07T04:07:19.682Z,3.9
2022-09-07T04:08:20.277Z,3.6
2022-09-07T04:09:20.881Z,3.6
2022-09-07T04:10:21.493Z,3.6
2022-09-07T04:11:22.091Z,3.6
2022-09-07T04:12:22.683Z,3.5
2022-09-07T04:13:23.278Z,3.5
2022-09-07T04:14:23.902Z,3.8
2022-09-07T04:15:24.469Z,3.7
2022-09-07T04:16:25.098Z,4.3
2022-09-07T04:17:25.661Z,3.8
2022-09-07T04:18:26.257Z,3.6
2022-09-07T04:19:26.852Z,4.1
2022-09-07T04:20:27.445Z,3.7
2022-09-07T04:21:28.040Z,4.0
2022-09-07T04:22:28.636Z,4.3
2022-09-07T04:23:29.233Z,3.7
2022-09-07T04:24:29.828Z,4.5
2022-09-07T04:25:30.425Z,4.3
2022-09-07T04:26:31.021Z,3.9
2022-09-07T04:27:31.617Z,3.8
2022-09-07T04:28:32.294Z,4.2
2022-09-07T04:29:32.925Z,4.3
2022-09-07T04:30:33.545Z,4.2
2022-09-07T04:31:34.113Z,4.2
2022-09-07T04:32:34.708Z,4.6
2022-09-07T04:33:35.305Z,4.5
2022-09-07T04:34:35.901Z,4.9
2022-09-07T04:35:36.501Z,4.1
2022-09-07T04:36:37.098Z,4.2
2022-09-07T04:37:37.693Z,4.1
2022-09-07T04:38:38.290Z,3.8
2022-09-07T04:39:38.975Z,4.2
2022-09-07T04:40:39.528Z,4.6
2022-09-07T04:41:40.127Z,4.3
2022-09-07T04:42:40.720Z,4.7
2022-09-07T04:43:41.319Z,4.4
2022-09-07T04:44:41.912Z,3.9
2022-09-07T04:45:42.540Z,4.6
2022-09-07T04:46:43.108Z,3.9
2022-09-07T04:47:43.707Z,4.2
2022-09-07T04:48:44.306Z,4.6
2022-09-07T04:49:44.910Z,4.4
2022-09-07T04:50:45.509Z,4.4
2022-09-07T04:51:46.112Z,4.3
2022-09-07T04:52:46.708Z,4.4
2022-09-07T04:53:47.309Z,3.8
2022-09-07T04:54:47.907Z,4.3
2022-09-07T04:55:48.508Z,3.7
2022-09-07T04:56:49.105Z,4.1
2022-09-07T04:57:49.704Z,5.5
2022-09-07T04:58:50.324Z,5.0
2022-09-07T04:59:50.926Z,5.9
2022-09-07T05:00:51.586Z,5.2
2022-09-07T05:01:52.222Z,4.2
2022-09-07T05:02:52.768Z,4.6
2022-09-07T05:03:53.368Z,4.9
2022-09-07T05:04:53.970Z,5.0
2022-09-07T05:05:54.567Z,5.1
2022-09-07T05:06:55.164Z,4.5
2022-09-07T05:07:55.766Z,4.8
2022-09-07T05:08:56.363Z,4.5
2022-09-07T05:09:56.965Z,4.8
2022-09-07T05:10:57.565Z,4.5
2022-09-07T05:11:58.183Z,4.8
2022-09-07T05:12:58.803Z,4.8
2022-09-07T05:13:59.404Z,5.3
2022-09-07T05:15:00.001Z,4.5
2022-09-07T05:16:00.603Z,5.1
2022-09-07T05:17:01.253Z,5.0
2022-09-07T05:18:01.801Z,4.3
2022-09-07T05:19:02.400Z,4.7
2022-09-07T05:20:03.004Z,9.2
2022-09-07T05:21:03.603Z,7.5
2022-09-07T05:22:04.208Z,5.7
2022-09-07T05:23:04.805Z,4.9
2022-09-07T05:24:05.407Z,4.7
2022-09-07T05:25:06.007Z,5.0
2022-09-07T05:26:06.613Z,5.1
2022-09-07T05:27:07.212Z,4.9
2022-09-07T05:28:07.833Z,5.4
2022-09-07T05:31:19.621Z,5.3
2022-09-07T05:32:13.218Z,4.5
2022-09-07T05:33:13.820Z,5.1
2022-09-07T05:34:30.366Z,4.9
2022-09-07T05:35:16.013Z,5.7
2022-09-07T05:36:16.616Z,4.7
2022-09-07T05:37:17.217Z,4.7
2022-09-07T05:38:17.835Z,4.9
2022-09-07T05:39:18.437Z,4.8
2022-09-07T05:40:19.039Z,4.3
2022-09-07T05:41:19.640Z,5.2
2022-09-07T05:42:20.246Z,5.1
2022-09-07T05:43:20.843Z,4.6
2022-09-07T05:45:23.036Z,4.6
2022-09-07T05:46:23.642Z,4.2
2022-09-07T05:47:24.242Z,5.2
2022-09-07T05:48:24.873Z,5.4
2022-09-07T05:49:25.442Z,4.7
2022-09-07T05:50:26.046Z,4.4
2022-09-07T05:51:26.646Z,5.0
2022-09-07T05:52:27.247Z,4.7
2022-09-07T05:53:27.847Z,4.5
2022-09-07T05:54:28.455Z,4.2
2022-09-07T05:55:30.461Z,4.0
2022-09-07T05:56:30.642Z,4.3
2022-09-07T05:57:31.243Z,4.2
2022-09-07T05:58:32.018Z,4.4
2022-09-07T05:59:32.624Z,3.9
2022-09-07T06:00:33.225Z,4.5
2022-09-07T06:01:33.822Z,4.0
2022-09-07T06:02:38.999Z,4.7
2022-09-07T06:03:36.116Z,4.1
2022-09-07T06:04:36.680Z,4.7
2022-09-07T06:05:37.281Z,4.1
2022-09-07T06:06:37.882Z,4.1
2022-09-07T06:07:38.482Z,4.3
2022-09-07T06:08:39.086Z,3.9
2022-09-07T06:11:41.906Z,4.2
2022-09-07T06:12:44.455Z,3.6
2022-09-07T06:13:44.101Z,3.9
2022-09-07T06:14:44.705Z,4.3
2022-09-07T06:15:45.300Z,3.7
2022-09-07T06:16:45.954Z,3.8
2022-09-07T06:17:46.512Z,3.9
2022-09-07T06:18:47.115Z,3.8
2022-09-07T06:19:47.716Z,3.8
2022-09-07T06:20:48.318Z,3.5
2022-09-07T06:21:48.919Z,3.4
2022-09-07T06:22:49.520Z,3.4
2022-09-07T06:23:50.121Z,3.8
2022-09-07T06:24:50.721Z,3.2
2022-09-07T06:25:51.322Z,3.8
2022-09-07T06:26:51.943Z,3.7
2022-09-07T06:27:52.543Z,3.7
2022-09-07T06:28:57.626Z,4.2
2022-09-07T06:29:53.760Z,4.0
2022-09-07T06:30:54.370Z,4.3
2022-09-07T06:32:56.559Z,3.8
2022-09-07T06:33:57.159Z,4.3
2022-09-07T06:34:57.761Z,3.8
2022-09-07T06:35:58.362Z,4.2
2022-09-07T06:36:58.964Z,3.7
2022-09-07T06:37:59.565Z,4.4
2022-09-07T06:39:00.168Z,3.8
2022-09-07T06:40:00.840Z,4.0
2022-09-07T06:42:02.990Z,3.6
2022-09-07T06:43:03.590Z,4.0
2022-09-07T06:44:04.191Z,4.0
2022-09-07T06:45:04.794Z,3.9
2022-09-07T06:47:06.991Z,3.9
2022-09-07T06:48:07.590Z,3.8
2022-09-07T06:49:08.195Z,3.2
2022-09-07T06:50:08.797Z,3.0
2022-09-07T06:51:09.396Z,3.0
2022-09-07T06:52:09.995Z,3.1
2022-09-07T06:55:13.787Z,3.6
2022-09-07T06:56:14.388Z,3.2
2022-09-07T06:57:14.992Z,3.5
2022-09-07T06:58:15.593Z,2.7
2022-09-07T06:59:16.217Z,3.2
2022-09-07T07:00:16.818Z,3.0
2022-09-07T07:01:17.471Z,3.5
2022-09-07T07:02:18.019Z,3.0
2022-09-07T07:03:18.697Z,3.0
2022-09-07T07:04:19.233Z,3.0
2022-09-07T07:05:19.839Z,3.5
2022-09-07T07:06:20.438Z,3.7
2022-09-07T07:07:21.042Z,3.3
2022-09-07T07:08:21.643Z,3.8
2022-09-07T07:09:22.265Z,3.4
2022-09-07T07:10:24.980Z,4.0
2022-09-07T07:11:24.462Z,3.2
2022-09-07T07:13:06.291Z,3.2
2022-09-07T07:14:06.894Z,3.4
2022-09-07T07:15:07.498Z,2.9
2022-09-07T07:16:08.197Z,2.7
2022-09-07T07:17:08.752Z,2.8
2022-09-07T07:18:20.811Z,2.7
2022-09-07T07:19:10.841Z,2.7
2022-09-07T07:20:11.462Z,2.9
2022-09-07T07:21:12.038Z,2.7
2022-09-07T07:22:42.916Z,3.4
2022-09-07T07:23:14.262Z,2.6
2022-09-07T07:24:14.858Z,2.7
2022-09-07T07:25:15.461Z,2.3
2022-09-07T07:26:16.066Z,2.9
2022-09-07T07:27:16.669Z,3.0
2022-09-07T07:29:19.162Z,3.2
2022-09-07T07:30:19.713Z,2.4
2022-09-07T07:31:20.341Z,2.5
2022-09-07T07:32:20.933Z,3.1
2022-09-07T07:33:21.537Z,2.7
2022-09-07T07:34:22.203Z,3.3
2022-09-07T07:35:22.763Z,2.6
2022-09-07T07:36:23.385Z,2.2
2022-09-07T07:37:27.955Z,2.6
2022-09-07T07:40:31.005Z,2.0
2022-09-07T07:42:03.215Z,2.6
2022-09-07T07:42:31.970Z,2.7
2022-09-07T07:43:32.701Z,2.1
2022-09-07T07:44:33.253Z,2.1
2022-09-07T07:46:35.487Z,2.0
2022-09-07T07:47:36.053Z,2.7
2022-09-07T07:48:36.664Z,2.4
2022-09-07T07:49:37.258Z,2.7
2022-09-07T07:50:37.860Z,2.5
2022-09-07T07:53:42.405Z,1.7
2022-09-07T07:54:43.256Z,2.1
2022-09-07T07:55:44.430Z,2.1
2022-09-07T07:56:44.476Z,1.9
2022-09-07T07:57:45.081Z,1.9
2022-09-07T07:58:45.683Z,2.1
2022-09-07T07:59:46.313Z,2.1
2022-09-07T08:00:55.625Z,1.8
2022-09-07T08:01:48.611Z,2.1
2022-09-07T08:02:49.174Z,1.9
2022-09-07T08:03:49.728Z,2.0
2022-09-07T08:04:50.571Z,1.7
2022-09-07T08:05:51.172Z,1.8
2022-09-07T08:06:51.777Z,1.8
2022-09-07T08:07:52.379Z,1.8
2022-09-07T08:08:52.983Z,1.5
2022-09-07T08:09:53.585Z,1.6
2022-09-07T08:10:54.188Z,1.7
2022-09-07T08:11:54.792Z,4.8
2022-09-07T08:12:55.391Z,6.7
2022-09-07T08:13:56.010Z,2.1
2022-09-07T08:14:56.636Z,2.0
2022-09-07T08:15:57.292Z,1.6
2022-09-07T08:16:57.855Z,1.3
2022-09-07T08:17:58.456Z,1.6
2022-09-07T08:18:59.071Z,1.6
2022-09-07T08:19:59.774Z,1.4
2022-09-07T08:21:00.291Z,1.6
2022-09-07T08:22:00.895Z,1.4
2022-09-07T08:23:01.516Z,1.3
2022-09-07T08:24:02.117Z,1.3
2022-09-07T08:25:02.722Z,1.6
2022-09-07T08:26:03.323Z,1.7
2022-09-07T08:27:03.926Z,1.5
2022-09-07T08:28:04.539Z,1.2
2022-09-07T08:29:05.153Z,1.5
2022-09-07T08:30:05.754Z,1.4
2022-09-07T08:31:06.421Z,1.6
2022-09-07T08:32:07.083Z,1.1
2022-09-07T08:33:07.648Z,1.3
2022-09-07T08:34:08.248Z,1.5
2022-09-07T08:35:08.851Z,1.4
2022-09-07T08:36:09.454Z,1.3
2022-09-07T08:37:10.080Z,1.6
2022-09-07T08:38:10.681Z,1.1
2022-09-07T08:39:11.304Z,1.3
2022-09-07T08:40:11.983Z,1.4
2022-09-07T08:41:12.548Z,1.1
2022-09-07T08:42:13.159Z,1.2
2022-09-07T08:43:13.756Z,1.1
2022-09-07T08:44:14.358Z,1.0
2022-09-07T08:45:14.962Z,1.0
2022-09-07T08:46:15.637Z,1.2
2022-09-07T08:47:16.230Z,1.2
2022-09-07T08:48:16.849Z,1.3
2022-09-07T08:49:17.450Z,1.1
2022-09-07T08:50:18.053Z,1.1
2022-09-07T08:51:23.633Z,1.0
2022-09-07T08:52:20.255Z,1.0
2022-09-07T08:53:20.860Z,1.0
2022-09-07T08:54:21.465Z,1.2
2022-09-07T08:55:22.089Z,0.9
2022-09-07T08:56:22.689Z,1.2
2022-09-07T08:57:23.346Z,1.1
2022-09-07T08:58:47.765Z,0.9
2022-09-07T08:59:25.502Z,1.1
2022-09-07T09:00:26.105Z,1.3
2022-09-07T09:01:34.485Z,0.9
2022-09-07T09:02:30.079Z,0.9
2022-09-07T09:03:30.554Z,1.1
2022-09-07T09:04:31.547Z,0.8
2022-09-07T09:05:32.231Z,1.1
2022-09-07T09:06:32.937Z,0.8
2022-09-07T09:07:33.483Z,0.8
2022-09-07T09:08:34.086Z,1.0
2022-09-07T09:09:34.692Z,1.2
2022-09-07T09:10:35.292Z,0.8
2022-09-07T09:11:35.896Z,0.7
2022-09-07T09:12:37.849Z,0.9
2022-09-07T09:13:38.098Z,0.8
2022-09-07T09:14:38.702Z,0.8
2022-09-07T09:15:39.338Z,0.8
2022-09-07T09:16:42.750Z,0.9
2022-09-07T09:17:41.500Z,0.9
2022-09-07T09:18:42.105Z,1.0
2022-09-07T09:19:42.705Z,0.8
2022-09-07T09:20:43.307Z,0.9
2022-09-07T09:21:43.930Z,1.0
2022-09-07T09:22:44.532Z,1.0
2022-09-07T09:23:45.140Z,1.1
2022-09-07T09:24:45.759Z,1.0
2022-09-07T09:25:46.363Z,1.3
2022-09-07T09:26:46.997Z,0.9
2022-09-07T09:27:47.570Z,1.3
2022-09-07T09:28:48.193Z,1.0
2022-09-07T09:29:48.796Z,1.0
2022-09-07T09:30:49.455Z,1.2
2022-09-07T09:31:50.014Z,1.0
2022-09-07T09:32:50.634Z,0.8
2022-09-07T09:33:51.237Z,0.9
2022-09-07T09:34:51.840Z,0.8
2022-09-07T09:35:52.444Z,0.9
2022-09-07T09:36:53.046Z,1.1
2022-09-07T09:37:53.670Z,1.3
2022-09-07T09:38:54.274Z,1.1
2022-09-07T09:39:57.082Z,0.9
2022-09-07T09:40:56.474Z,1.1
2022-09-07T09:41:57.078Z,0.8
2022-09-07T09:42:57.681Z,1.0
2022-09-07T09:43:58.305Z,1.3
2022-09-07T09:44:58.927Z,1.0
2022-09-07T09:46:14.882Z,1.2
2022-09-07T09:48:02.798Z,1.2
2022-09-07T09:49:03.388Z,0.8
2022-09-07T09:50:03.979Z,0.8
2022-09-07T09:53:07.774Z,1.1
2022-09-07T09:54:08.378Z,1.2
2022-09-07T09:55:33.225Z,1.1
2022-09-07T09:56:10.575Z,1.0
2022-09-07T09:57:11.178Z,1.3
2022-09-07T10:00:23.618Z,1.0
2022-09-07T10:01:24.817Z,1.4
2022-09-07T10:04:24.401Z,1.1
2022-09-07T10:05:22.956Z,0.9
2022-09-07T10:06:23.561Z,1.3
2022-09-07T10:07:24.162Z,1.1
2022-09-07T10:08:24.765Z,1.4
2022-09-07T10:09:25.366Z,1.4
2022-09-07T10:10:26.079Z,1.4
2022-09-07T10:12:04.970Z,1.3
2022-09-07T10:12:28.206Z,1.1
2022-09-07T10:13:28.809Z,1.5
2022-09-07T10:14:29.414Z,1.1
2022-09-07T10:15:30.072Z,1.1
2022-09-07T10:16:30.702Z,1.0
2022-09-07T10:17:31.263Z,1.1
2022-09-07T10:18:31.959Z,1.1
2022-09-07T10:19:32.587Z,1.1
2022-09-07T10:20:33.210Z,1.0
2022-09-07T10:21:33.814Z,1.3
2022-09-07T10:22:34.419Z,1.6
2022-09-07T10:23:35.023Z,1.1
2022-09-07T10:24:35.627Z,1.3
2022-09-07T10:25:36.231Z,1.2
2022-09-07T10:26:36.852Z,1.2
2022-09-07T10:27:37.460Z,1.3
2022-09-07T10:29:08.310Z,0.9
2022-09-07T10:29:39.652Z,1.1
2022-09-07T10:30:40.298Z,1.1
2022-09-07T10:31:40.936Z,1.6
2022-09-07T10:32:41.507Z,1.5
2022-09-07T10:33:42.116Z,1.2
2022-09-07T10:34:42.834Z,1.4
2022-09-07T10:35:43.438Z,1.0
2022-09-07T10:36:44.091Z,1.0
2022-09-07T10:37:44.667Z,1.2
2022-09-07T10:38:45.293Z,0.8
2022-09-07T10:39:45.909Z,0.9
2022-09-07T10:40:46.496Z,0.8
2022-09-07T10:41:47.097Z,1.3
2022-09-07T10:43:49.297Z,1.2
2022-09-07T10:44:49.921Z,1.1
2022-09-07T10:45:50.591Z,1.2
2022-09-07T10:46:58.541Z,1.0
2022-09-07T10:47:52.748Z,1.0
2022-09-07T10:48:53.352Z,1.1
2022-09-07T10:50:55.572Z,1.0
2022-09-07T10:51:56.175Z,1.2
2022-09-07T10:52:56.778Z,0.9
2022-09-07T10:54:58.973Z,1.0
2022-09-07T10:55:59.578Z,0.9
2022-09-07T10:57:00.181Z,0.8
2022-09-07T10:58:00.783Z,1.0
2022-09-07T10:59:02.240Z,1.0
2022-09-07T11:00:10.551Z,1.3
2022-09-07T11:01:04.621Z,1.2
2022-09-07T11:02:05.172Z,1.0
2022-09-07T11:04:07.373Z,1.0
2022-09-07T11:05:07.975Z,1.1
2022-09-07T11:06:08.576Z,1.1
2022-09-07T11:07:13.624Z,1.0
2022-09-07T11:08:09.800Z,0.9
2022-09-07T11:09:18.518Z,0.8
2022-09-07T11:10:12.025Z,0.7
2022-09-07T11:11:12.631Z,1.1
2022-09-07T11:12:13.234Z,1.1
2022-09-07T11:13:13.840Z,1.0
2022-09-07T11:14:14.442Z,1.0
2022-09-07T11:15:15.048Z,1.3
2022-09-07T11:17:17.247Z,1.0
2022-09-07T11:18:17.849Z,1.1
2022-09-07T11:20:20.047Z,1.0
2022-09-07T11:22:22.269Z,1.0
2022-09-07T11:23:22.874Z,1.2
2022-09-07T11:24:23.502Z,0.9
2022-09-07T11:25:31.345Z,0.8
2022-09-07T11:26:25.719Z,1.0
2022-09-07T11:27:26.325Z,0.9
2022-09-07T11:28:26.928Z,0.9
2022-09-07T11:29:30.512Z,1.1
2022-09-07T11:30:29.148Z,1.0
2022-09-07T11:31:29.753Z,0.8
2022-09-07T11:32:30.354Z,0.9
2022-09-07T11:33:30.956Z,0.9
2022-09-07T11:34:31.561Z,1.0
2022-09-07T11:35:32.162Z,0.9
2022-09-07T11:36:32.769Z,1.0
2022-09-07T11:37:33.375Z,0.9
2022-09-07T11:38:33.980Z,0.8
2022-09-07T11:39:34.625Z,1.0
2022-09-07T11:40:35.211Z,0.9
2022-09-07T11:41:35.814Z,0.9
2022-09-07T11:42:44.111Z,0.8
2022-09-07T11:43:38.012Z,1.1
2022-09-07T11:44:38.618Z,1.1
2022-09-07T11:45:39.222Z,1.1
2022-09-07T11:46:39.911Z,0.9
2022-09-07T11:47:40.497Z,0.9
2022-09-07T11:48:41.101Z,1.0
2022-09-07T11:49:41.702Z,1.2
2022-09-07T11:50:42.307Z,0.9
2022-09-07T11:51:42.916Z,0.8
2022-09-07T11:52:43.538Z,0.9
2022-09-07T11:53:44.162Z,1.0
2022-09-07T11:54:44.770Z,1.3
2022-09-07T11:55:45.369Z,0.9
2022-09-07T11:56:46.071Z,0.9
2022-09-07T11:57:46.614Z,1.0
2022-09-07T11:58:47.221Z,0.8
2022-09-07T11:59:47.841Z,1.0
2022-09-07T12:00:48.447Z,1.0
2022-09-07T12:01:49.052Z,0.8
2022-09-07T12:02:59.419Z,0.9
2022-09-07T12:03:51.390Z,0.9
2022-09-07T12:04:56.134Z,1.0
2022-09-07T12:05:52.607Z,0.9
2022-09-07T12:06:53.213Z,0.8
2022-09-07T12:07:53.817Z,1.0
2022-09-07T12:08:54.422Z,1.1
2022-09-07T12:09:55.026Z,1.1
2022-09-07T12:10:55.637Z,1.0
2022-09-07T12:11:56.254Z,1.2
2022-09-07T12:12:56.875Z,1.0
2022-09-07T12:13:57.461Z,1.1
2022-09-07T12:14:58.065Z,1.0
2022-09-07T12:15:58.708Z,0.9
2022-09-07T12:16:59.271Z,0.8
2022-09-07T12:17:59.875Z,1.1
2022-09-07T12:19:00.483Z,0.9
2022-09-07T12:20:01.083Z,1.0
2022-09-07T12:21:01.690Z,1.1
2022-09-07T12:22:02.298Z,1.0
2022-09-07T12:23:05.244Z,1.0
2022-09-07T12:24:04.500Z,1.1
2022-09-07T12:25:05.101Z,1.0
2022-09-07T12:26:05.705Z,1.4
2022-09-07T12:27:06.304Z,1.3
2022-09-07T12:28:06.927Z,1.0
2022-09-07T12:29:07.535Z,0.9
2022-09-07T12:30:08.138Z,1.0
2022-09-07T12:31:08.798Z,1.1
2022-09-07T12:33:10.960Z,1.1
2022-09-07T12:34:11.563Z,1.1
2022-09-07T12:35:12.169Z,1.0
2022-09-07T12:36:12.774Z,1.0
2022-09-07T12:37:13.379Z,0.9
2022-09-07T12:38:13.982Z,1.1
2022-09-07T12:39:14.588Z,1.0
2022-09-07T12:40:15.242Z,0.9
2022-09-07T12:41:15.811Z,1.1
2022-09-07T12:42:32.473Z,1.0
2022-09-07T12:43:18.013Z,1.1
2022-09-07T12:44:18.616Z,1.2
2022-09-07T12:45:19.224Z,1.1
2022-09-07T12:46:19.878Z,1.1
2022-09-07T12:47:20.488Z,1.1
2022-09-07T12:48:21.091Z,1.6
2022-09-07T12:49:21.695Z,1.2
2022-09-07T12:50:22.299Z,1.5
2022-09-07T12:52:24.499Z,1.1
2022-09-07T12:53:25.104Z,1.1
2022-09-07T12:54:25.707Z,1.3
2022-09-07T12:55:29.194Z,0.9
2022-09-07T12:56:27.905Z,0.9
2022-09-07T12:57:29.812Z,1.0
2022-09-07T12:58:30.052Z,1.1
2022-09-07T12:59:30.618Z,1.1
2022-09-07T13:00:31.221Z,1.0
2022-09-07T13:01:31.950Z,1.1
2022-09-07T13:02:32.703Z,1.3
2022-09-07T13:04:34.926Z,0.8
2022-09-07T13:05:35.532Z,1.0
2022-09-07T13:07:37.730Z,1.1
2022-09-07T13:08:38.332Z,1.0
2022-09-07T13:09:38.938Z,0.8
2022-09-07T13:10:39.541Z,0.8
2022-09-07T13:11:40.145Z,1.0
2022-09-07T13:14:43.990Z,1.1
2022-09-07T13:15:44.591Z,0.8
2022-09-07T13:17:46.761Z,1.0
2022-09-07T13:18:47.387Z,1.0
2022-09-07T13:19:47.993Z,0.9
2022-09-07T13:20:48.599Z,1.2
2022-09-07T13:21:49.221Z,0.9
2022-09-07T13:22:49.824Z,1.5
2022-09-07T13:23:50.463Z,1.2
2022-09-07T13:24:51.217Z,1.1
2022-09-07T13:25:51.814Z,1.3
2022-09-07T13:26:52.416Z,1.3
2022-09-07T13:27:53.021Z,1.0
2022-09-07T13:28:54.803Z,1.0
2022-09-07T13:29:55.379Z,1.3
2022-09-07T13:30:55.975Z,1.3
2022-09-07T13:31:56.538Z,1.1
2022-09-07T13:33:12.530Z,1.1
2022-09-07T13:33:58.740Z,1.1
2022-09-07T13:34:59.343Z,1.4
2022-09-07T13:35:59.947Z,1.5
2022-09-07T13:37:00.553Z,1.2
2022-09-07T13:38:01.162Z,1.4
2022-09-07T13:39:01.802Z,1.6
2022-09-07T13:40:02.453Z,1.4
2022-09-07T13:41:03.044Z,1.3
2022-09-07T13:42:03.649Z,1.5
2022-09-07T13:43:04.253Z,1.6
2022-09-07T13:44:04.868Z,1.7
2022-09-07T13:45:05.458Z,1.5
2022-09-07T13:46:06.088Z,1.8
2022-09-07T13:47:06.662Z,2.4
2022-09-07T13:48:07.269Z,2.2
2022-09-07T13:49:07.868Z,2.5
2022-09-07T13:50:08.476Z,2.4
2022-09-07T13:51:09.080Z,2.3
2022-09-07T13:52:09.690Z,2.2
2022-09-07T13:53:10.289Z,2.1
2022-09-07T13:54:10.942Z,2.6
2022-09-07T13:55:11.520Z,2.3
2022-09-07T13:56:12.144Z,2.4
2022-09-07T13:57:12.748Z,2.6
2022-09-07T13:58:13.352Z,2.3
2022-09-07T13:59:13.956Z,2.2
2022-09-07T14:00:14.580Z,2.4
2022-09-07T14:01:15.232Z,1.8
2022-09-07T14:02:15.856Z,2.3
2022-09-07T14:03:16.489Z,2.6
2022-09-07T14:04:17.093Z,2.0
2022-09-07T14:05:17.695Z,2.8
2022-09-07T14:06:18.301Z,2.6
2022-09-07T14:07:18.903Z,2.5
2022-09-07T14:08:19.510Z,2.5
2022-09-07T14:09:20.112Z,2.6
2022-09-07T14:10:20.718Z,2.4
2022-09-07T14:11:21.329Z,2.4
2022-09-07T14:12:21.946Z,2.5
2022-09-07T14:13:22.549Z,2.6
2022-09-07T14:14:23.153Z,3.2
2022-09-07T14:15:23.760Z,3.3
2022-09-07T14:16:24.390Z,2.8
2022-09-07T14:17:24.964Z,3.0
2022-09-07T14:18:25.576Z,3.5
2022-09-07T14:19:26.170Z,2.6
2022-09-07T14:20:26.775Z,2.5
2022-09-07T14:21:27.379Z,2.6
2022-09-07T14:22:27.982Z,2.6
2022-09-07T14:23:28.677Z,2.9
2022-09-07T14:24:29.240Z,2.6
2022-09-07T14:25:30.099Z,2.6
2022-09-07T14:26:30.684Z,3.3
2022-09-07T14:27:31.287Z,2.6
2022-09-07T14:28:31.908Z,2.7
2022-09-07T14:29:32.512Z,2.7
2022-09-07T14:30:33.251Z,2.4
2022-09-07T14:31:34.753Z,2.3
2022-09-07T14:32:35.934Z,2.3
2022-09-07T14:33:37.433Z,2.6
2022-09-07T14:34:38.030Z,2.3